Time;durP1;ratioP1;P1;durP2;ratioP2;P2;SDS_P1;SDS_P2;PMS_P1;PMS_P2;Temp;Humidity;BMP_temperature;BMP_pressure;BME280_temperature;BME280_humidity;BME280_pressure;Samples;Min_cycle;Max_cycle;Signal;HPM_P1;HPM_P2
2024/02/29 00:02:03;;;;;;;10.00;6.00;;;16.20;99.90;;;;;;5029061;28;20030;-75
2024/02/29 00:04:29;;;;;;;7.47;4.68;;;16.20;99.90;;;;;;5055519;28;20034;-74
2024/02/29 00:06:55;;;;;;;9.67;5.30;;;16.10;99.90;;;;;;5023574;28;20623;-73
2024/02/29 00:09:21;;;;;;;7.60;5.05;;;16.10;99.90;;;;;;5028344;28;20766;-74
2024/02/29 00:11:47;;;;;;;10.07;5.43;;;16.20;99.90;;;;;;5027704;28;20044;-75
2024/02/29 00:14:13;;;;;;;11.38;5.82;;;16.10;99.90;;;;;;5059596;28;20036;-75
2024/02/29 00:16:45;;;;;;;8.30;5.55;;;16.10;99.90;;;;;;5053628;28;20072;-74
2024/02/29 00:19:11;;;;;;;7.00;5.00;;;16.10;99.90;;;;;;5031738;28;20115;-74
2024/02/29 00:21:37;;;;;;;7.03;5.20;;;16.10;99.90;;;;;;5033354;28;20021;-74
2024/02/29 00:24:03;;;;;;;10.57;5.67;;;16.10;99.90;;;;;;5032609;28;20033;-74
2024/02/29 00:26:29;;;;;;;9.07;5.23;;;16.10;99.90;;;;;;5049210;28;20054;-75
2024/02/29 00:28:55;;;;;;;8.47;5.10;;;16.10;99.90;;;;;;5027258;28;20267;-75
2024/02/29 00:31:21;;;;;;;7.87;4.60;;;16.10;99.90;;;;;;5032988;28;20455;-74
2024/02/29 00:33:47;;;;;;;;;;;16.00;99.90;;;;;;5033390;28;20021;-74
2024/02/29 00:36:13;;;;;;;7.03;4.50;;;16.00;99.90;;;;;;5032409;28;20354;-74
2024/02/29 00:38:39;;;;;;;9.00;5.87;;;16.00;99.90;;;;;;5033078;28;20251;-75
2024/02/29 00:41:06;;;;;;;9.13;5.23;;;16.00;99.90;;;;;;5032954;28;20112;-74
2024/02/29 00:43:31;;;;;;;7.90;5.03;;;16.00;99.90;;;;;;5032829;28;20043;-74
2024/02/29 00:45:57;;;;;;;6.70;4.90;;;16.00;99.90;;;;;;5031307;28;20021;-74
2024/02/29 00:48:23;;;;;;;7.17;4.33;;;16.00;99.90;;;;;;5032194;28;20068;-75
2024/02/29 00:50:49;;;;;;;8.93;4.27;;;16.00;99.90;;;;;;5032038;28;20204;-74
2024/02/29 00:53:14;;;;;;;7.83;4.83;;;16.00;99.90;;;;;;5032412;28;20049;-74
2024/02/29 00:55:40;;;;;;;6.87;4.20;;;16.00;99.90;;;;;;5032778;28;20056;-75
2024/02/29 00:58:06;;;;;;;8.60;4.87;;;15.90;99.90;;;;;;5032319;28;20769;-74
2024/02/29 01:00:32;;;;;;;6.97;5.20;;;15.90;99.90;;;;;;5032375;28;20025;-75
2024/02/29 01:02:58;;;;;;;7.70;4.90;;;15.90;99.90;;;;;;5030732;28;20100;-76
2024/02/29 01:05:23;;;;;;;7.97;5.07;;;15.90;99.90;;;;;;5054656;28;20037;-74
2024/02/29 01:07:49;;;;;;;8.10;5.23;;;15.90;99.90;;;;;;5032418;28;20108;-75
2024/02/29 01:10:15;;;;;;;7.67;4.43;;;15.90;99.90;;;;;;5030499;28;20529;-74
2024/02/29 01:12:41;;;;;;;10.25;5.95;;;15.90;99.90;;;;;;5032108;28;20125;-74
2024/02/29 01:15:09;;;;;;;8.77;4.75;;;15.90;99.90;;;;;;5032295;28;20459;-75
2024/02/29 01:17:35;;;;;;;6.32;4.45;;;15.90;99.90;;;;;;5031826;28;20021;-74
2024/02/29 01:20:01;;;;;;;6.13;4.35;;;15.90;99.90;;;;;;5058995;28;20112;-75
2024/02/29 01:22:27;;;;;;;9.02;4.85;;;15.90;99.90;;;;;;5027977;28;20128;-74
2024/02/29 01:24:52;;;;;;;8.47;4.37;;;15.80;99.90;;;;;;5032468;28;20037;-73
2024/02/29 01:27:18;;;;;;;8.30;4.53;;;15.80;99.90;;;;;;5030200;28;20025;-75
2024/02/29 01:29:44;;;;;;;8.67;5.03;;;15.80;99.90;;;;;;5031374;28;20025;-74
2024/02/29 01:32:10;;;;;;;7.15;4.85;;;15.80;99.90;;;;;;5030599;28;20034;-75
2024/02/29 01:34:36;;;;;;;10.30;4.93;;;15.80;99.90;;;;;;5031641;28;20084;-73
2024/02/29 01:37:03;;;;;;;8.80;4.47;;;15.80;99.90;;;;;;5027915;28;20546;-75
2024/02/29 01:39:29;;;;;;;7.05;4.53;;;15.80;99.90;;;;;;5026827;28;20271;-75
2024/02/29 01:41:56;;;;;;;7.63;4.20;;;15.80;99.90;;;;;;5031124;28;20029;-76
2024/02/29 01:44:25;;;;;;;9.15;5.18;;;15.80;99.90;;;;;;5031796;28;20025;-74
2024/02/29 01:46:51;;;;;;;8.40;4.68;;;15.80;99.90;;;;;;5060579;28;20049;-75
2024/02/29 01:49:17;;;;;;;7.90;4.90;;;15.80;99.90;;;;;;5030052;28;20521;-74
2024/02/29 01:51:44;;;;;;;7.63;4.85;;;15.70;99.90;;;;;;5059810;28;20384;-74
2024/02/29 01:54:13;;;;;;;7.15;4.50;;;15.70;99.90;;;;;;5029915;28;20080;-75
2024/02/29 01:56:41;;;;;;;7.15;4.22;;;15.70;99.90;;;;;;5062516;28;20470;-74
2024/02/29 01:59:10;;;;;;;8.35;4.45;;;15.70;99.90;;;;;;5030934;28;20556;-76
2024/02/29 02:01:37;;;;;;;6.13;4.00;;;15.70;99.90;;;;;;5030391;28;20030;-75
2024/02/29 02:04:02;;;;;;;;;;;15.70;99.90;;;;;;5030420;28;20351;-74
2024/02/29 02:06:28;;;;;;;8.63;5.03;;;15.70;99.90;;;;;;5030941;28;19912;-74
2024/02/29 02:08:54;;;;;;;9.43;5.00;;;15.70;99.90;;;;;;5031196;28;20257;-75
2024/02/29 02:11:19;;;;;;;7.73;4.57;;;15.70;99.90;;;;;;5029590;28;20402;-74
2024/02/29 02:13:45;;;;;;;8.17;4.60;;;15.60;99.90;;;;;;5030628;28;20044;-74
2024/02/29 02:16:11;;;;;;;7.65;4.15;;;15.60;99.90;;;;;;5062579;28;20521;-75
2024/02/29 02:18:38;;;;;;;6.68;4.63;;;15.60;99.90;;;;;;5029389;28;20021;-75
2024/02/29 02:21:04;;;;;;;6.53;4.43;;;15.60;99.90;;;;;;5030732;28;20478;-74
2024/02/29 02:23:30;;;;;;;;;;;15.60;99.90;;;;;;5029888;28;20057;-74
2024/02/29 02:25:58;;;;;;;6.32;4.38;;;15.60;99.90;;;;;;5029366;28;19944;-74
2024/02/29 02:28:27;;;;;;;9.18;4.30;;;15.60;99.90;;;;;;5062665;28;20044;-75
2024/02/29 02:30:53;;;;;;;8.27;4.57;;;15.60;99.90;;;;;;5030488;28;20025;-74
2024/02/29 02:33:20;;;;;;;7.72;4.03;;;15.60;99.90;;;;;;5053667;28;20387;-73
2024/02/29 02:35:46;;;;;;;9.25;4.55;;;15.60;99.90;;;;;;5027657;28;20021;-75
2024/02/29 02:38:12;;;;;;;8.27;4.22;;;15.60;99.90;;;;;;5029352;28;20468;-76
2024/02/29 02:40:38;;;;;;;6.65;4.15;;;15.60;99.90;;;;;;5053207;28;20033;-75
2024/02/29 02:43:04;;;;;;;7.37;4.50;;;15.60;99.90;;;;;;5059148;28;20033;-73
2024/02/29 02:45:30;;;;;;;6.80;4.17;;;15.60;99.90;;;;;;5028668;28;20038;-74
2024/02/29 02:47:56;;;;;;;7.45;4.90;;;15.50;99.90;;;;;;5023758;28;20018;-74
2024/02/29 02:50:23;;;;;;;6.53;3.85;;;15.50;99.90;;;;;;5060672;28;20037;-74
2024/02/29 02:52:49;;;;;;;6.97;4.75;;;15.50;99.90;;;;;;5030042;28;20390;-74
2024/02/29 02:55:15;;;;;;;7.93;4.43;;;15.50;99.90;;;;;;5028720;28;20033;-73
2024/02/29 02:57:41;;;;;;;7.20;4.33;;;15.50;99.90;;;;;;5062382;28;20052;-75
2024/02/29 03:00:10;;;;;;;6.37;3.97;;;15.50;99.90;;;;;;5062641;28;20626;-75
2024/02/29 03:02:37;;;;;;;7.00;4.43;;;15.50;99.90;;;;;;5028560;28;20029;-73
2024/02/29 03:05:04;;;;;;;6.65;3.72;;;15.50;99.90;;;;;;5029119;28;20462;-75
2024/02/29 03:07:30;;;;;;;5.95;4.35;;;15.50;99.90;;;;;;5058041;28;20030;-75
2024/02/29 03:09:56;;;;;;;7.30;4.30;;;15.50;99.90;;;;;;5028559;28;20060;-74
2024/02/29 03:12:22;;;;;;;7.47;4.38;;;15.50;99.90;;;;;;5030225;28;20025;-75
2024/02/29 03:14:49;;;;;;;7.03;4.00;;;15.50;99.90;;;;;;5028908;28;20072;-74
2024/02/29 03:17:15;;;;;;;9.77;4.72;;;15.50;99.90;;;;;;5030233;28;20100;-74
2024/02/29 03:19:42;;;;;;;6.30;4.20;;;15.50;99.90;;;;;;5028435;28;20120;-74
2024/02/29 03:22:08;;;;;;;6.85;4.00;;;15.50;99.90;;;;;;5062441;28;20071;-76
2024/02/29 03:24:39;;;;;;;6.17;3.93;;;15.50;99.90;;;;;;5030635;28;20044;-74
2024/02/29 03:27:05;;;;;;;9.05;4.70;;;15.50;99.90;;;;;;5015646;28;20279;-74
2024/02/29 03:29:31;;;;;;;5.53;3.97;;;15.40;99.90;;;;;;5030417;28;20044;-74
2024/02/29 03:31:57;;;;;;;7.03;3.63;;;15.40;99.90;;;;;;5029801;28;20095;-74
2024/02/29 03:34:23;;;;;;;6.97;4.27;;;15.40;99.90;;;;;;5029062;28;20040;-74
2024/02/29 03:36:48;;;;;;;7.97;4.27;;;15.40;99.90;;;;;;5062530;28;20030;-74
2024/02/29 03:39:14;;;;;;;8.07;4.10;;;15.40;99.90;;;;;;5062173;28;20018;-74
2024/02/29 03:41:40;;;;;;;6.87;4.00;;;15.40;99.90;;;;;;5030043;28;20033;-74
2024/02/29 03:44:06;;;;;;;5.50;3.33;;;15.40;99.90;;;;;;5029071;28;20071;-73
2024/02/29 03:46:32;;;;;;;6.90;3.97;;;15.40;99.90;;;;;;5030359;28;20029;-74
2024/02/29 03:48:57;;;;;;;6.17;3.97;;;15.40;99.90;;;;;;5030141;28;20021;-75
2024/02/29 03:51:23;;;;;;;6.70;4.20;;;15.40;99.90;;;;;;5029148;28;20025;-74
2024/02/29 03:53:49;;;;;;;7.20;4.13;;;15.40;99.90;;;;;;5034070;28;20026;-74
2024/02/29 03:56:15;;;;;;;7.05;4.07;;;15.30;99.90;;;;;;5032445;28;20025;-75
2024/02/29 03:58:41;;;;;;;6.83;4.23;;;15.30;99.90;;;;;;5066008;28;20032;-73
2024/02/29 04:01:12;;;;;;;5.90;4.10;;;15.30;99.90;;;;;;5033855;28;20258;-74
2024/02/29 04:03:39;;;;;;;7.90;4.07;;;15.30;99.90;;;;;;5065924;28;20477;-73
2024/02/29 04:06:06;;;;;;;9.15;3.80;;;15.30;99.90;;;;;;5033162;28;20025;-74
2024/02/29 04:08:35;;;;;;;7.40;4.00;;;15.30;99.90;;;;;;5033780;28;20281;-75
2024/02/29 04:11:02;;;;;;;8.52;4.45;;;15.30;99.90;;;;;;5065370;28;20025;-74
2024/02/29 04:13:29;;;;;;;6.82;4.60;;;15.30;99.90;;;;;;5051573;28;20029;-73
2024/02/29 04:15:54;;;;;;;4.60;3.53;;;15.30;99.90;;;;;;5062624;28;20044;-74
2024/02/29 04:18:20;;;;;;;5.37;3.20;;;15.30;99.90;;;;;;5052047;28;20029;-75
2024/02/29 04:20:46;;;;;;;7.57;4.37;;;15.30;99.90;;;;;;5056443;28;20029;-75
2024/02/29 04:23:12;;;;;;;6.13;4.00;;;15.30;99.90;;;;;;5029392;28;20062;-75
2024/02/29 04:25:38;;;;;;;6.65;4.07;;;15.20;99.90;;;;;;5031747;28;20449;-74
2024/02/29 04:28:05;;;;;;;4.97;3.40;;;15.30;99.90;;;;;;5051288;28;20030;-74
2024/02/29 04:30:31;;;;;;;7.93;3.70;;;15.20;99.90;;;;;;5032977;28;20029;-74
2024/02/29 04:32:58;;;;;;;6.05;3.35;;;15.20;99.90;;;;;;5031473;28;20112;-74
2024/02/29 04:35:24;;;;;;;7.13;4.38;;;15.30;99.90;;;;;;5032702;28;20414;-74
2024/02/29 04:37:50;;;;;;;6.57;3.58;;;15.20;99.90;;;;;;5055335;28;20041;-75
2024/02/29 04:40:16;;;;;;;7.03;3.97;;;15.20;99.90;;;;;;5029217;28;20087;-74
2024/02/29 04:42:42;;;;;;;5.40;3.60;;;15.20;99.90;;;;;;5032411;28;20028;-74
2024/02/29 04:45:08;;;;;;;9.03;4.07;;;15.20;99.90;;;;;;5031127;28;20059;-74
2024/02/29 04:47:34;;;;;;;7.65;4.18;;;15.20;99.90;;;;;;5033082;28;20018;-74
2024/02/29 04:50:00;;;;;;;4.83;3.10;;;15.20;99.90;;;;;;5031513;28;20459;-74
2024/02/29 04:52:26;;;;;;;5.88;3.35;;;15.20;99.90;;;;;;5032771;28;20450;-74
2024/02/29 04:54:52;;;;;;;5.97;3.60;;;15.20;99.90;;;;;;5031641;28;20041;-74
2024/02/29 04:57:18;;;;;;;6.13;3.90;;;15.10;99.90;;;;;;5054376;28;20030;-74
2024/02/29 04:59:44;;;;;;;5.60;3.67;;;15.10;99.90;;;;;;5030560;28;20021;-74
2024/02/29 05:02:10;;;;;;;7.37;3.50;;;15.10;99.90;;;;;;5032162;28;20804;-74
2024/02/29 05:04:37;;;;;;;7.23;3.87;;;15.20;99.90;;;;;;5032722;28;20497;-74
2024/02/29 05:07:04;;;;;;;4.63;3.45;;;15.10;99.90;;;;;;5031119;28;20025;-75
2024/02/29 05:09:29;;;;;;;7.53;3.60;;;15.10;99.90;;;;;;5031903;28;20025;-75
2024/02/29 05:11:55;;;;;;;5.83;3.77;;;15.10;99.90;;;;;;5063943;28;20120;-74
2024/02/29 05:14:21;;;;;;;5.60;3.80;;;15.20;99.90;;;;;;5031784;28;20040;-74
2024/02/29 05:16:47;;;;;;;5.47;3.87;;;15.10;99.90;;;;;;5032073;28;20116;-74
2024/02/29 05:19:13;;;;;;;6.65;3.60;;;15.10;99.90;;;;;;5032456;28;20079;-74
2024/02/29 05:21:40;;;;;;;6.00;3.83;;;15.10;99.90;;;;;;5032017;28;20083;-74
2024/02/29 05:24:06;;;;;;;6.03;3.45;;;15.10;99.90;;;;;;5032621;28;20029;-74
2024/02/29 05:26:31;;;;;;;6.00;4.05;;;15.10;99.90;;;;;;5030458;28;20111;-75
2024/02/29 05:28:57;;;;;;;6.33;4.10;;;15.10;99.90;;;;;;5030809;28;20491;-74
2024/02/29 05:31:23;;;;;;;8.30;4.03;;;15.10;99.90;;;;;;5031459;28;20061;-74
2024/02/29 05:33:49;;;;;;;5.13;3.25;;;15.10;99.90;;;;;;5031694;28;20056;-74
2024/02/29 05:36:15;;;;;;;8.00;4.20;;;15.10;99.90;;;;;;5031951;28;20458;-75
2024/02/29 05:38:41;;;;;;;5.40;3.55;;;15.10;99.90;;;;;;5031764;28;20022;-75
2024/02/29 05:41:07;;;;;;;6.50;4.00;;;15.10;99.90;;;;;;5031793;28;20509;-73
2024/02/29 05:43:34;;;;;;;4.77;3.30;;;15.10;99.90;;;;;;5063884;28;20037;-74
2024/02/29 05:46:00;;;;;;;6.18;3.53;;;15.00;99.90;;;;;;5063848;28;20531;-74
2024/02/29 05:48:26;;;;;;;5.60;3.47;;;15.10;99.90;;;;;;5031313;28;20144;-73
2024/02/29 05:50:52;;;;;;;6.97;4.33;;;15.00;99.90;;;;;;5031785;28;20253;-75
2024/02/29 05:53:18;;;;;;;5.90;3.63;;;15.00;99.90;;;;;;5031333;28;20287;-75
2024/02/29 05:55:44;;;;;;;6.80;3.77;;;15.00;99.90;;;;;;5030260;28;20025;-75
2024/02/29 05:58:10;;;;;;;5.53;3.50;;;15.00;99.90;;;;;;5031555;28;20135;-75
2024/02/29 06:00:36;;;;;;;5.67;3.20;;;15.00;99.90;;;;;;5030963;28;20030;-76
2024/02/29 06:03:02;;;;;;;4.93;3.50;;;15.00;99.90;;;;;;5029582;28;20112;-75
2024/02/29 06:05:29;;;;;;;5.95;3.65;;;15.00;99.90;;;;;;5021844;28;20274;-74
2024/02/29 06:07:55;;;;;;;6.43;3.63;;;15.00;99.90;;;;;;5028831;28;20077;-74
2024/02/29 06:10:22;;;;;;;4.80;3.45;;;15.00;99.90;;;;;;5030910;28;20473;-74
2024/02/29 06:12:48;;;;;;;5.38;3.55;;;15.00;99.90;;;;;;5030512;28;20037;-75
2024/02/29 06:15:14;;;;;;;5.20;3.40;;;15.00;99.90;;;;;;5030056;28;20135;-74
2024/02/29 06:17:40;;;;;;;6.07;3.37;;;14.90;99.90;;;;;;5029795;28;20589;-74
2024/02/29 06:20:11;;;;;;;4.77;3.40;;;14.90;99.90;;;;;;5062053;28;20443;-75
2024/02/29 06:22:39;;;;;;;6.80;3.88;;;14.90;99.90;;;;;;5029381;28;20777;-74
2024/02/29 06:25:06;;;;;;;5.72;3.60;;;14.90;99.90;;;;;;5031197;28;20025;-74
2024/02/29 06:27:32;;;;;;;5.97;3.58;;;14.90;99.90;;;;;;5030730;28;20470;-74
2024/02/29 06:29:58;;;;;;;5.28;3.40;;;14.90;99.90;;;;;;5030419;28;20079;-74
2024/02/29 06:32:24;;;;;;;4.97;3.15;;;14.90;99.90;;;;;;5030534;28;20026;-73
2024/02/29 06:34:50;;;;;;;5.17;3.37;;;14.90;99.90;;;;;;5030652;28;20033;-74
2024/02/29 06:37:16;;;;;;;6.20;3.85;;;14.90;99.90;;;;;;5017616;28;20022;-74
2024/02/29 06:39:42;;;;;;;6.50;3.60;;;14.80;99.90;;;;;;5061781;28;20379;-74
2024/02/29 06:42:08;;;;;;;7.13;3.83;;;14.90;99.90;;;;;;5058545;28;20025;-75
2024/02/29 06:44:34;;;;;;;5.60;3.47;;;14.90;99.90;;;;;;5028589;28;20083;-74
2024/02/29 06:47:00;;;;;;;8.47;3.80;;;14.90;99.90;;;;;;5030424;28;20095;-74
2024/02/29 06:49:26;;;;;;;6.40;3.58;;;14.90;99.90;;;;;;5029034;28;20282;-75
2024/02/29 06:51:52;;;;;;;5.65;3.33;;;14.80;99.90;;;;;;5029385;28;20398;-74
2024/02/29 06:54:18;;;;;;;4.60;2.97;;;14.90;99.90;;;;;;5028411;28;20033;-75
2024/02/29 06:56:45;;;;;;;4.87;3.53;;;14.80;99.90;;;;;;5030847;28;20277;-76
2024/02/29 06:59:11;;;;;;;;;;;14.80;99.90;;;;;;5029364;28;20581;-73
2024/02/29 07:01:37;;;;;;;4.85;3.55;;;14.80;99.90;;;;;;5028422;28;19904;-74
2024/02/29 07:04:03;;;;;;;6.20;3.53;;;14.90;99.90;;;;;;5061408;28;20040;-73
2024/02/29 07:06:29;;;;;;;4.72;3.08;;;14.80;99.90;;;;;;5030324;28;20402;-73
2024/02/29 07:08:55;;;;;;;6.00;3.60;;;14.90;99.90;;;;;;5030482;28;20030;-72
2024/02/29 07:11:25;;;;;;;9.83;3.70;;;14.90;99.90;;;;;;5029058;28;20112;-73
2024/02/29 07:13:54;;;;;;;12.07;3.70;;;14.90;99.90;;;;;;5030062;28;20484;-73
2024/02/29 07:16:20;;;;;;;119.65;51.80;;;14.90;99.90;;;;;;5062569;28;20025;-75
2024/02/29 07:18:46;;;;;;;41.50;20.70;;;14.90;99.90;;;;;;5061613;28;20380;-75
2024/02/29 07:21:12;;;;;;;21.50;8.23;;;14.90;99.90;;;;;;5029003;28;20033;-73
2024/02/29 07:23:38;;;;;;;16.95;7.65;;;15.00;99.90;;;;;;5029931;28;20485;-73
2024/02/29 07:26:04;;;;;;;13.10;9.27;;;15.00;99.90;;;;;;5031665;28;20101;-73
2024/02/29 07:28:30;;;;;;;13.20;6.63;;;15.00;99.90;;;;;;5034001;28;20505;-74
2024/02/29 07:30:56;;;;;;;81.60;67.90;;;14.90;99.90;;;;;;5033545;28;20612;-75
2024/02/29 07:33:24;;;;;;;22.40;14.77;;;15.00;99.90;;;;;;5032179;28;20041;-74
2024/02/29 07:35:50;;;;;;;29.83;16.13;;;15.00;99.90;;;;;;5032373;28;20374;-75
2024/02/29 07:38:15;;;;;;;19.83;14.57;;;15.00;99.90;;;;;;5033763;28;20032;-75
2024/02/29 07:40:42;;;;;;;22.07;12.23;;;15.00;99.90;;;;;;5034412;28;20025;-73
2024/02/29 07:43:08;;;;;;;22.17;11.77;;;15.00;99.90;;;;;;5031799;28;20117;-73
2024/02/29 07:45:34;;;;;;;94.10;62.78;;;15.00;99.90;;;;;;5032159;28;20030;-73
2024/02/29 07:48:00;;;;;;;44.58;33.50;;;15.00;99.90;;;;;;5033571;28;20028;-72
2024/02/29 07:50:27;;;;;;;28.88;20.75;;;15.00;99.90;;;;;;5034018;28;20120;-73
2024/02/29 07:52:53;;;;;;;34.03;22.80;;;15.00;99.90;;;;;;5064733;28;20119;-72
2024/02/29 07:55:19;;;;;;;28.43;20.17;;;15.00;99.90;;;;;;5033845;28;20041;-73
2024/02/29 07:57:45;;;;;;;35.50;19.93;;;15.00;99.90;;;;;;5032400;28;20718;-74
2024/02/29 08:00:11;;;;;;;30.53;19.67;;;15.00;99.90;;;;;;5065572;28;20022;-73
2024/02/29 08:02:46;;;;;;;24.15;16.98;;;15.10;99.90;;;;;;5032137;28;20151;-74
2024/02/29 08:05:12;;;;;;;21.77;15.95;;;15.10;99.90;;;;;;5032638;28;20120;-73
2024/02/29 08:07:38;;;;;;;26.30;16.00;;;15.10;99.90;;;;;;5033084;28;20021;-73
2024/02/29 08:10:05;;;;;;;21.70;14.10;;;15.10;99.90;;;;;;5024154;28;20057;-75
2024/02/29 08:12:31;;;;;;;21.85;14.93;;;15.10;99.90;;;;;;5032817;28;20021;-75
2024/02/29 08:14:57;;;;;;;18.80;14.23;;;15.10;99.90;;;;;;5032455;28;20806;-74
2024/02/29 08:17:26;;;;;;;16.17;12.88;;;15.10;99.90;;;;;;5032760;28;20026;-75
2024/02/29 08:19:53;;;;;;;17.88;12.80;;;15.10;99.90;;;;;;5032323;28;20037;-73
2024/02/29 08:22:19;;;;;;;18.20;11.88;;;15.10;99.90;;;;;;5031396;28;20083;-75
2024/02/29 08:24:45;;;;;;;23.20;12.67;;;15.10;99.90;;;;;;5030664;28;20041;-75
2024/02/29 08:27:11;;;;;;;19.77;11.23;;;15.20;99.90;;;;;;5030616;28;20063;-74
2024/02/29 08:29:37;;;;;;;21.33;12.17;;;15.20;99.90;;;;;;5030346;28;20082;-74
2024/02/29 08:32:02;;;;;;;13.47;10.37;;;15.20;99.90;;;;;;5031323;28;20281;-74
2024/02/29 08:34:28;;;;;;;214.13;95.67;;;15.20;99.90;;;;;;5026418;28;20059;-74
2024/02/29 08:36:54;;;;;;;44.03;22.55;;;15.20;99.90;;;;;;5030657;28;20083;-75
2024/02/29 08:39:20;;;;;;;42.93;23.87;;;15.20;99.90;;;;;;5030175;28;20033;-73
2024/02/29 08:41:47;;;;;;;39.73;22.13;;;15.30;99.90;;;;;;5026159;28;20034;-73
2024/02/29 08:44:15;;;;;;;37.05;20.55;;;15.30;99.90;;;;;;5030408;28;20270;-73
2024/02/29 08:46:40;;;;;;;38.03;19.92;;;15.30;99.90;;;;;;5030770;28;20474;-74
2024/02/29 08:49:07;;;;;;;28.90;18.27;;;15.30;99.90;;;;;;5064030;28;20049;-73
2024/02/29 08:51:33;;;;;;;29.23;17.77;;;15.30;99.90;;;;;;5021195;28;20477;-73
2024/02/29 08:53:58;;;;;;;27.38;16.35;;;15.30;99.90;;;;;;5031218;28;20030;-73
2024/02/29 08:56:24;;;;;;;28.77;15.40;;;15.30;99.90;;;;;;5030458;28;20034;-73
2024/02/29 08:58:51;;;;;;;29.37;15.53;;;15.40;99.90;;;;;;5032056;28;20033;-75
2024/02/29 09:01:18;;;;;;;23.02;15.10;;;15.40;99.90;;;;;;5030763;28;20025;-74
2024/02/29 09:03:44;;;;;;;24.17;14.50;;;15.40;99.90;;;;;;5038925;28;20032;-72
2024/02/29 09:06:10;;;;;;;29.27;15.97;;;15.40;99.90;;;;;;5030547;28;20360;-74
2024/02/29 09:08:36;;;;;;;133.07;68.63;;;15.40;99.90;;;;;;5027526;28;20037;-73
2024/02/29 09:11:03;;;;;;;67.07;38.17;;;15.40;99.90;;;;;;5027570;28;20025;-72
2024/02/29 09:13:29;;;;;;;82.45;40.15;;;15.50;99.90;;;;;;5060595;28;20038;-73
2024/02/29 09:15:55;;;;;;;68.17;36.70;;;15.50;99.90;;;;;;5030308;28;20036;-73
2024/02/29 09:18:22;;;;;;;68.37;35.00;;;15.50;99.90;;;;;;5031547;28;20064;-73
2024/02/29 09:20:48;;;;;;;63.67;32.42;;;15.60;99.90;;;;;;5032099;28;20053;-72
2024/02/29 09:23:14;;;;;;;63.97;30.83;;;15.50;99.90;;;;;;5030451;28;20462;-73
2024/02/29 09:25:40;;;;;;;55.13;30.60;;;15.60;99.90;;;;;;5031118;28;20480;-73
2024/02/29 09:28:05;;;;;;;53.67;28.53;;;15.60;99.90;;;;;;5030308;28;20020;-74
2024/02/29 09:30:31;;;;;;;56.67;29.07;;;15.60;99.90;;;;;;5031124;28;20029;-72
2024/02/29 09:32:57;;;;;;;47.27;26.10;;;15.60;99.90;;;;;;5031492;28;20076;-73
2024/02/29 09:35:23;;;;;;;43.33;26.13;;;15.60;99.90;;;;;;5059160;28;20040;-72
2024/02/29 09:37:49;;;;;;;47.73;25.50;;;15.60;99.90;;;;;;5030912;28;20048;-72
2024/02/29 09:40:18;;;;;;;46.55;25.67;;;15.60;99.90;;;;;;5063579;28;20079;-72
2024/02/29 09:42:46;;;;;;;44.83;26.70;;;15.70;99.90;;;;;;5022586;28;20654;-72
2024/02/29 09:45:14;;;;;;;43.58;25.02;;;15.70;99.90;;;;;;5061770;28;20037;-74
2024/02/29 09:47:43;;;;;;;49.08;27.40;;;15.70;99.90;;;;;;5031572;28;20021;-73
2024/02/29 09:50:09;;;;;;;43.15;24.58;;;15.70;99.90;;;;;;5029747;28;20083;-73
2024/02/29 09:52:38;;;;;;;39.85;24.58;;;15.70;99.90;;;;;;5029245;28;20129;-72
2024/02/29 09:55:12;;;;;;;42.00;23.70;;;15.80;99.90;;;;;;5031583;28;20064;-72
2024/02/29 09:57:39;;;;;;;43.33;23.27;;;15.80;99.90;;;;;;5029202;28;20025;-72
2024/02/29 10:00:10;;;;;;;44.80;22.42;;;15.80;99.90;;;;;;5034081;28;20021;-72
2024/02/29 10:02:37;;;;;;;38.95;21.83;;;15.90;99.90;;;;;;5030957;28;20037;-72
2024/02/29 10:05:03;;;;;;;36.20;21.13;;;15.90;99.90;;;;;;5030783;28;20094;-75
2024/02/29 10:07:31;;;;;;;45.95;20.95;;;15.90;99.90;;;;;;5035578;28;20526;-73
2024/02/29 10:09:58;;;;;;;39.45;19.73;;;16.00;99.90;;;;;;5030944;28;20020;-73
2024/02/29 10:12:24;;;;;;;30.85;18.88;;;16.00;99.90;;;;;;5029606;28;20026;-75
2024/02/29 10:14:58;;;;;;;31.37;18.70;;;16.00;99.90;;;;;;5031074;28;20074;-72
2024/02/29 10:17:24;;;;;;;30.42;17.80;;;16.10;99.90;;;;;;5030728;28;20022;-75
2024/02/29 10:19:52;;;;;;;31.80;17.40;;;16.10;99.90;;;;;;5029687;28;20029;-72
2024/02/29 10:22:21;;;;;;;30.10;18.45;;;16.10;99.90;;;;;;5029676;28;20474;-72
2024/02/29 10:24:54;;;;;;;33.60;17.73;;;16.10;99.90;;;;;;5029428;28;20033;-72
2024/02/29 10:27:22;;;;;;;28.73;17.40;;;16.10;99.90;;;;;;5030032;28;20086;-73
2024/02/29 10:29:51;;;;;;;28.80;15.85;;;16.10;99.90;;;;;;5030610;28;20026;-72
2024/02/29 10:32:19;;;;;;;28.38;16.60;;;16.10;99.90;;;;;;5029299;28;20033;-72
2024/02/29 10:34:45;;;;;;;26.25;16.05;;;16.10;99.90;;;;;;5030982;28;20087;-72
2024/02/29 10:37:10;;;;;;;28.50;14.83;;;16.10;99.90;;;;;;5030583;28;20433;-72
2024/02/29 10:39:38;;;;;;;30.23;16.17;;;16.10;99.90;;;;;;5055622;28;20022;-72
2024/02/29 10:42:04;;;;;;;21.00;14.38;;;16.10;99.90;;;;;;5029557;28;20029;-71
2024/02/29 10:44:33;;;;;;;30.33;15.10;;;16.10;99.90;;;;;;5035261;28;20044;-73
2024/02/29 10:47:03;;;;;;;27.25;14.95;;;16.10;99.90;;;;;;5028639;28;20488;-72
2024/02/29 10:49:46;;;;;;;24.23;13.93;;;16.10;99.90;;;;;;5051110;28;20037;-72
2024/02/29 10:52:24;;;;;;;26.77;13.55;;;16.20;99.90;;;;;;5028788;28;20058;-72
2024/02/29 10:54:56;;;;;;;28.67;12.85;;;16.20;99.90;;;;;;5026517;28;20029;-73
2024/02/29 10:57:28;;;;;;;22.98;12.60;;;16.30;99.90;;;;;;5028397;28;20069;-72
2024/02/29 11:00:02;;;;;;;23.45;12.80;;;16.30;99.90;;;;;;5023859;28;20038;-73
2024/02/29 11:02:28;;;;;;;18.38;11.82;;;16.30;99.90;;;;;;5060562;28;20402;-73
2024/02/29 11:04:55;;;;;;;23.33;12.27;;;16.40;99.90;;;;;;5029738;28;20033;-73
2024/02/29 11:07:21;;;;;;;19.27;11.73;;;16.40;99.90;;;;;;5029181;28;20112;-72
2024/02/29 11:09:47;;;;;;;21.02;11.10;;;16.40;99.90;;;;;;5027759;28;20045;-72
2024/02/29 11:12:15;;;;;;;20.50;11.40;;;16.40;99.90;;;;;;5056158;28;20028;-72
2024/02/29 11:14:47;;;;;;;22.52;10.27;;;16.40;99.90;;;;;;5029909;28;20381;-73
2024/02/29 11:17:17;;;;;;;18.40;11.00;;;16.40;99.90;;;;;;5030124;28;20034;-72
2024/02/29 11:19:44;;;;;;;17.90;10.63;;;16.50;99.90;;;;;;5023605;28;20029;-72
2024/02/29 11:22:12;;;;;;;21.55;11.35;;;16.50;99.90;;;;;;5029598;28;20013;-74
2024/02/29 11:24:40;;;;;;;20.88;11.18;;;16.50;99.90;;;;;;5028934;28;20164;-72
2024/02/29 11:27:12;;;;;;;40.15;22.52;;;16.50;99.90;;;;;;5025966;28;20460;-74
2024/02/29 11:29:39;;;;;;;19.83;11.95;;;16.50;99.90;;;;;;5021873;28;20025;-73
2024/02/29 11:32:05;;;;;;;24.60;12.65;;;16.60;99.90;;;;;;5028314;28;20021;-72
2024/02/29 11:34:31;;;;;;;18.25;11.57;;;16.60;99.90;;;;;;5031014;28;20034;-73
2024/02/29 11:36:57;;;;;;;18.50;10.63;;;16.60;99.90;;;;;;5023483;28;20409;-73
2024/02/29 11:39:23;;;;;;;18.85;10.60;;;16.60;99.90;;;;;;5022887;28;20024;-72
2024/02/29 11:42:00;;;;;;;18.17;10.52;;;16.60;99.90;;;;;;5030497;28;20539;-71
2024/02/29 11:44:26;;;;;;;15.00;9.48;;;16.60;99.90;;;;;;5061147;28;20037;-71
2024/02/29 11:46:52;;;;;;;14.77;9.57;;;16.60;99.90;;;;;;5062425;28;20036;-72
2024/02/29 11:49:20;;;;;;;15.40;9.00;;;16.60;99.90;;;;;;5029848;28;20119;-72
2024/02/29 11:51:46;;;;;;;14.57;8.10;;;16.60;99.90;;;;;;5028781;28;20053;-73
2024/02/29 11:54:15;;;;;;;15.77;8.03;;;16.70;99.90;;;;;;5029200;28;20032;-74
2024/02/29 11:56:42;;;;;;;14.00;7.45;;;16.70;99.90;;;;;;5029733;28;20433;-72
2024/02/29 11:59:10;;;;;;;12.95;8.18;;;16.70;99.90;;;;;;5029721;28;20040;-72
2024/02/29 12:01:36;;;;;;;17.20;7.18;;;16.60;99.90;;;;;;5026467;28;20120;-75
2024/02/29 12:04:03;;;;;;;14.10;7.10;;;16.60;99.90;;;;;;5028902;28;20045;-74
2024/02/29 12:06:29;;;;;;;15.45;7.43;;;16.60;99.90;;;;;;5029266;28;20127;-72
2024/02/29 12:08:59;;;;;;;13.70;7.85;;;16.70;99.90;;;;;;5029554;28;20486;-72
2024/02/29 12:11:25;;;;;;;14.10;8.13;;;16.70;99.90;;;;;;5027538;28;20137;-73
2024/02/29 12:13:50;;;;;;;17.70;8.37;;;16.70;99.90;;;;;;5030052;28;20117;-72
2024/02/29 12:16:16;;;;;;;21.57;8.33;;;16.80;99.90;;;;;;5032490;28;20025;-74
2024/02/29 12:18:44;;;;;;;12.77;7.33;;;16.80;99.90;;;;;;5033093;28;20037;-74
2024/02/29 12:21:10;;;;;;;12.00;7.40;;;16.80;99.90;;;;;;5031657;28;20083;-72
2024/02/29 12:23:38;;;;;;;21.67;7.20;;;16.80;99.90;;;;;;5031559;28;20378;-73
2024/02/29 12:26:12;;;;;;;15.10;6.70;;;16.80;99.90;;;;;;5033128;28;20088;-74
2024/02/29 12:28:38;;;;;;;13.68;6.68;;;16.80;99.90;;;;;;5031771;28;20034;-72
2024/02/29 12:31:08;;;;;;;20.15;7.25;;;16.90;99.90;;;;;;5032707;28;20056;-72
2024/02/29 12:33:41;;;;;;;12.65;6.88;;;16.90;99.90;;;;;;5033002;28;20030;-73
2024/02/29 12:36:08;;;;;;;16.08;6.22;;;16.90;99.90;;;;;;5032718;28;20057;-73
2024/02/29 12:38:37;;;;;;;15.00;6.32;;;16.90;99.90;;;;;;5032254;28;20033;-72